Time;durP1;ratioP1;P1;durP2;ratioP2;P2;SDS_P1;SDS_P2;PMS_P1;PMS_P2;Temp;Humidity;BMP_temperature;BMP_pressure;BME280_temperature;BME280_humidity;BME280_pressure;Samples;Min_cycle;Max_cycle;Signal;HPM_P1;HPM_P2
2023/03/13 00:04:15;;;;;;;8.02;3.22;;;9.20;99.90;;;;;;25901734;22;20319;-40
2023/03/13 00:14:17;;;;;;;6.32;2.20;;;9.30;99.90;;;;;;25908320;22;20015;-40
2023/03/13 00:24:18;;;;;;;6.53;3.03;;;9.40;99.90;;;;;;25912153;22;20018;-40
2023/03/13 00:34:19;;;;;;;11.45;2.97;;;9.40;99.90;;;;;;25906716;22;20019;-40
2023/03/13 00:44:20;;;;;;;9.88;2.92;;;9.30;99.90;;;;;;25909754;22;20016;-40
2023/03/13 00:54:21;;;;;;;8.35;3.22;;;9.30;99.90;;;;;;25902148;22;20345;-40
2023/03/13 01:04:22;;;;;;;9.27;2.53;;;9.40;99.90;;;;;;25899893;22;21423;-40
2023/03/13 01:14:23;;;;;;;4.55;1.73;;;9.50;99.90;;;;;;25896987;22;20015;-40
2023/03/13 01:24:24;;;;;;;5.78;2.58;;;9.50;99.90;;;;;;25911488;22;20404;-39
2023/03/13 01:34:25;;;;;;;6.00;2.45;;;9.60;99.90;;;;;;25916389;22;20023;-40
2023/03/13 01:44:26;;;;;;;5.40;2.30;;;9.70;99.90;;;;;;25904843;22;20007;-40
2023/03/13 01:54:54;;;;;;;6.50;2.47;;;9.80;99.90;;;;;;25906250;22;20286;-41
2023/03/13 02:04:59;;;;;;;;;;;10.00;99.90;;;;;;25912488;22;20004;-40
2023/03/13 02:15:22;;;;;;;7.20;3.25;;;10.10;99.90;;;;;;25911636;22;19919;-40
2023/03/13 02:25:23;;;;;;;4.82;2.30;;;10.20;99.90;;;;;;25914223;22;20136;-40
2023/03/13 02:35:24;;;;;;;7.47;3.42;;;10.20;99.90;;;;;;25914729;22;20024;-39
2023/03/13 02:45:26;;;;;;;10.63;4.43;;;10.40;99.90;;;;;;25889267;22;20014;-40
2023/03/13 02:55:39;;;;;;;4.68;2.35;;;10.60;99.90;;;;;;25902199;22;20011;-39
2023/03/13 03:05:40;;;;;;;9.25;3.67;;;10.80;99.90;;;;;;25900895;22;20011;-39
2023/03/13 03:15:41;;;;;;;19.45;3.72;;;11.10;99.90;;;;;;25897971;22;20349;-40
2023/03/13 03:25:43;;;;;;;6.55;2.50;;;11.30;99.90;;;;;;25904550;22;20050;-40
2023/03/13 03:35:44;;;;;;;3.97;1.98;;;11.30;99.90;;;;;;25879256;22;20028;-40
2023/03/13 03:45:45;;;;;;;8.80;2.75;;;11.50;99.90;;;;;;25879265;22;20020;-40
2023/03/13 03:55:46;;;;;;;5.07;2.75;;;11.60;99.90;;;;;;25882429;22;20020;-40
2023/03/13 04:05:47;;;;;;;3.55;1.77;;;11.70;99.90;;;;;;25893003;22;20345;-40
2023/03/13 04:15:48;;;;;;;2.20;1.40;;;11.60;99.90;;;;;;25877850;22;20182;-40
2023/03/13 04:25:50;;;;;;;8.93;2.83;;;11.70;99.90;;;;;;25881098;22;20016;-40
2023/03/13 04:35:51;;;;;;;6.93;1.52;;;11.80;99.90;;;;;;25900289;22;20024;-40
2023/03/13 04:45:55;;;;;;;2.95;1.30;;;11.80;99.90;;;;;;25896386;22;20008;-40
2023/03/13 04:56:01;;;;;;;3.55;1.50;;;11.80;99.90;;;;;;25905330;22;20027;-40
2023/03/13 05:06:02;;;;;;;3.55;0.90;;;11.90;99.90;;;;;;25909518;22;20187;-40
2023/03/13 05:16:03;;;;;;;4.03;1.52;;;12.00;99.90;;;;;;25876512;22;20019;-40
2023/03/13 05:26:04;;;;;;;3.70;1.33;;;12.00;99.90;;;;;;25888407;22;20022;-40
2023/03/13 05:36:06;;;;;;;4.88;1.58;;;12.20;99.90;;;;;;25896398;22;20027;-40
2023/03/13 05:46:07;;;;;;;4.00;1.48;;;12.20;99.90;;;;;;25903774;22;20019;-40
2023/03/13 05:56:08;;;;;;;4.15;1.38;;;12.40;99.90;;;;;;25902323;22;20016;-41
2023/03/13 06:06:09;;;;;;;3.72;1.58;;;12.30;99.90;;;;;;25918402;22;20083;-41
2023/03/13 06:16:10;;;;;;;1.83;0.90;;;12.40;94.30;;;;;;25904816;22;20503;-41
2023/03/13 06:26:11;;;;;;;4.32;1.63;;;12.50;84.90;;;;;;25912226;22;20058;-41
2023/03/13 06:36:12;;;;;;;13.27;2.42;;;12.50;75.00;;;;;;25877335;22;20046;-41
2023/03/13 06:46:17;;;;;;;2.47;1.00;;;12.60;70.20;;;;;;25893868;22;20018;-41
2023/03/13 06:56:20;;;;;;;2.60;1.20;;;12.60;73.10;;;;;;25903820;22;20018;-41
2023/03/13 07:06:21;;;;;;;2.08;1.17;;;12.50;93.90;;;;;;25908157;22;20026;-41
2023/03/13 07:16:22;;;;;;;2.58;1.00;;;12.20;99.90;;;;;;25903391;22;20073;-43
2023/03/13 07:26:23;;;;;;;4.00;1.30;;;12.10;99.90;;;;;;25897925;22;20445;-40
2023/03/13 07:36:24;;;;;;;3.55;1.40;;;11.90;99.90;;;;;;25889824;22;20375;-40
2023/03/13 07:46:26;;;;;;;2.40;1.20;;;11.90;99.90;;;;;;25901684;22;20018;-42
2023/03/13 07:56:27;;;;;;;2.58;1.33;;;11.80;99.90;;;;;;25900119;22;20910;-40
2023/03/13 08:06:34;;;;;;;5.22;2.80;;;11.90;99.90;;;;;;25896288;22;20026;-41
2023/03/13 08:16:35;;;;;;;3.63;1.25;;;12.00;99.90;;;;;;25895323;22;20277;-41
2023/03/13 08:26:38;;;;;;;2.28;0.90;;;12.20;99.90;;;;;;25900437;22;20021;-41
2023/03/13 08:36:40;;;;;;;1.88;1.30;;;12.40;99.90;;;;;;25900594;22;20015;-41
2023/03/13 08:46:42;;;;;;;2.75;0.95;;;12.30;99.90;;;;;;25901738;22;20007;-41
2023/03/13 08:56:44;;;;;;;3.10;1.50;;;12.40;99.90;;;;;;25902245;22;20026;-41
2023/03/13 09:06:45;;;;;;;2.80;0.75;;;12.50;99.90;;;;;;25893382;22;20016;-42
2023/03/13 09:16:47;;;;;;;1.88;0.88;;;13.00;91.00;;;;;;25896661;22;20021;-42
2023/03/13 09:26:48;;;;;;;3.45;1.58;;;13.40;56.50;;;;;;25897323;22;20437;-41
2023/03/13 09:36:49;;;;;;;3.22;1.40;;;13.50;46.60;;;;;;25908858;22;20023;-41
2023/03/13 09:46:52;;;;;;;1.30;0.47;;;13.60;40.80;;;;;;25906934;22;20008;-42
2023/03/13 09:57:05;;;;;;;1.85;0.75;;;13.80;29.90;;;;;;25903981;22;20007;-42
2023/03/13 10:07:10;;;;;;;1.15;0.45;;;14.20;23.30;;;;;;25904893;22;20042;-41
2023/03/13 10:17:34;;;;;;;1.58;0.30;;;14.60;18.00;;;;;;25906055;22;20051;-41
2023/03/13 10:27:48;;;;;;;1.58;0.30;;;14.80;12.50;;;;;;25895835;22;20421;-42
2023/03/13 10:37:58;;;;;;;1.38;0.60;;;15.00;10.40;;;;;;25906873;22;20019;-42
2023/03/13 10:48:03;;;;;;;2.05;0.30;;;15.60;4.00;;;;;;25899160;22;20012;-42
2023/03/13 10:58:05;;;;;;;1.70;1.48;;;15.40;1.30;;;;;;25908622;22;20093;-41
2023/03/13 11:08:15;;;;;;;3.03;0.95;;;15.60;1.00;;;;;;25919039;22;20020;-41
2023/03/13 11:18:26;;;;;;;2.35;0.82;;;16.00;1.00;;;;;;25903952;22;20046;-42
2023/03/13 11:28:54;;;;;;;1.33;0.30;;;16.20;1.00;;;;;;25906095;22;20020;-41
2023/03/13 11:39:21;;;;;;;1.08;0.30;;;16.90;1.00;;;;;;25899965;22;20028;-41
2023/03/13 11:49:37;;;;;;;2.85;0.77;;;16.10;1.00;;;;;;25901944;22;20015;-41
2023/03/13 12:00:01;;;;;;;2.08;0.63;;;16.00;1.00;;;;;;25899150;22;20023;-42
2023/03/13 12:10:10;;;;;;;2.25;0.77;;;16.80;1.00;;;;;;25878428;22;20024;-42
2023/03/13 12:20:40;;;;;;;2.10;0.60;;;17.10;1.00;;;;;;25900499;22;20019;-42
2023/03/13 12:30:44;;;;;;;5.63;1.63;;;17.00;1.00;;;;;;25902833;22;20441;-42
2023/03/13 12:41:23;;;;;;;1.52;0.52;;;17.20;1.00;;;;;;25902700;22;20464;-41
2023/03/13 12:51:47;;;;;;;4.10;1.02;;;18.00;1.00;;;;;;25897675;22;20395;-42
2023/03/13 13:01:52;;;;;;;1.67;1.02;;;18.00;1.00;;;;;;25901539;22;20046;-42
2023/03/13 13:11:56;;;;;;;7.40;1.40;;;16.70;1.00;;;;;;25865332;22;20014;-42
2023/03/13 13:22:37;;;;;;;4.82;1.90;;;16.80;1.00;;;;;;25875182;22;20489;-42
2023/03/13 13:32:49;;;;;;;7.53;1.95;;;16.60;1.00;;;;;;25904636;22;20015;-42
2023/03/13 13:43:01;;;;;;;3.72;0.93;;;17.30;1.00;;;;;;25908434;22;20449;-40
2023/03/13 13:53:33;;;;;;;5.57;1.05;;;18.20;1.00;;;;;;25898559;22;20396;-43
2023/03/13 14:03:41;;;;;;;1.90;0.70;;;17.40;1.00;;;;;;25891933;22;20356;-41
2023/03/13 14:13:42;;;;;;;4.05;1.63;;;16.80;1.00;;;;;;25897388;22;20455;-41
2023/03/13 14:23:45;;;;;;;3.55;1.88;;;17.70;1.00;;;;;;25902785;22;20016;-42
2023/03/13 14:33:46;;;;;;;4.28;1.38;;;17.70;1.00;;;;;;25898585;22;20145;-42
2023/03/13 14:43:47;;;;;;;3.90;1.10;;;17.50;1.00;;;;;;25904531;22;20026;-42
2023/03/13 14:54:23;;;;;;;9.00;2.08;;;17.00;1.00;;;;;;25900722;22;20358;-41
2023/03/13 15:04:50;;;;;;;5.00;1.58;;;16.60;1.00;;;;;;25895627;22;20022;-41
2023/03/13 15:14:52;;;;;;;4.18;1.80;;;16.10;1.00;;;;;;25908203;22;20035;-42
2023/03/13 15:24:53;;;;;;;3.83;1.80;;;15.80;1.00;;;;;;25899600;22;20114;-42
2023/03/13 15:34:57;;;;;;;6.25;1.23;;;15.70;1.00;;;;;;25878378;22;20335;-42
2023/03/13 15:44:58;;;;;;;2.75;1.00;;;15.70;1.00;;;;;;25891026;22;20423;-42
2023/03/13 15:55:01;;;;;;;3.40;1.20;;;15.50;1.00;;;;;;25889458;22;20065;-42
2023/03/13 16:05:03;;;;;;;4.50;1.77;;;15.30;1.00;;;;;;25897200;22;20008;-42
2023/03/13 16:15:04;;;;;;;8.10;2.28;;;14.90;1.00;;;;;;25901904;22;20021;-42
2023/03/13 16:25:07;;;;;;;4.82;1.45;;;14.60;1.00;;;;;;25890976;22;20094;-42
2023/03/13 16:35:08;;;;;;;7.18;2.65;;;14.40;1.00;;;;;;25898000;22;20364;-42
2023/03/13 16:45:10;;;;;;;11.48;3.40;;;14.00;1.00;;;;;;25907083;22;20086;-42
2023/03/13 16:55:11;;;;;;;17.63;3.58;;;13.90;1.00;;;;;;25895807;22;20255;-42
2023/03/13 17:05:14;;;;;;;8.73;1.83;;;13.70;1.00;;;;;;25890828;22;20023;-42
2023/03/13 17:15:17;;;;;;;4.95;2.92;;;13.50;1.00;;;;;;25896416;22;20073;-42
2023/03/13 17:25:18;;;;;;;10.40;4.30;;;13.40;1.00;;;;;;25898992;22;20038;-42
2023/03/13 17:35:20;;;;;;;5.40;2.17;;;13.10;1.00;;;;;;25902083;22;20022;-42
2023/03/13 17:45:23;;;;;;;11.25;3.35;;;12.90;1.00;;;;;;25907423;22;20016;-41
2023/03/13 17:55:24;;;;;;;5.82;2.58;;;12.90;1.00;;;;;;25903118;22;20118;-42
2023/03/13 18:05:26;;;;;;;5.30;1.85;;;12.80;1.00;;;;;;25863769;22;20016;-41
2023/03/13 18:15:27;;;;;;;12.13;4.70;;;12.70;1.00;;;;;;25880662;22;20089;-42
2023/03/13 18:25:29;;;;;;;3.50;1.30;;;12.70;1.00;;;;;;25874717;22;20338;-42
2023/03/13 18:35:30;;;;;;;4.78;2.28;;;12.40;1.00;;;;;;25888872;22;20034;-42
2023/03/13 18:45:32;;;;;;;7.97;2.75;;;12.20;1.00;;;;;;25861564;22;20019;-42
2023/03/13 18:55:33;;;;;;;11.27;3.10;;;12.10;1.00;;;;;;25902228;22;20320;-42
2023/03/13 19:05:34;;;;;;;7.75;2.30;;;12.10;1.00;;;;;;25877650;22;20026;-42
2023/03/13 19:15:36;;;;;;;2.63;1.60;;;12.00;1.00;;;;;;25878604;22;20020;-42
2023/03/13 19:25:37;;;;;;;16.52;3.35;;;11.70;1.00;;;;;;25885998;22;20579;-42
2023/03/13 19:35:38;;;;;;;4.28;2.15;;;11.50;1.00;;;;;;25877646;22;20032;-42
2023/03/13 19:45:40;;;;;;;7.47;3.00;;;11.40;1.00;;;;;;25871396;22;20011;-42
2023/03/13 19:55:41;;;;;;;10.30;1.50;;;11.30;1.00;;;;;;25879884;22;20024;-42
2023/03/13 20:05:42;;;;;;;13.80;4.25;;;11.20;1.00;;;;;;25883626;22;20542;-42
2023/03/13 20:15:43;;;;;;;28.55;4.50;;;11.10;1.00;;;;;;25879097;22;20023;-41
2023/03/13 20:25:44;;;;;;;3.50;1.58;;;10.90;1.00;;;;;;25882734;22;20011;-42
2023/03/13 20:35:45;;;;;;;6.93;2.00;;;10.90;1.00;;;;;;25878877;22;20028;-42
2023/03/13 20:45:47;;;;;;;7.35;2.85;;;10.90;1.00;;;;;;25862383;22;20765;-41
2023/03/13 20:55:48;;;;;;;6.68;2.03;;;10.90;1.00;;;;;;25870046;22;20210;-42
2023/03/13 21:05:49;;;;;;;3.17;1.73;;;10.80;1.00;;;;;;25877311;22;20086;-42
2023/03/13 21:15:57;;;;;;;8.35;2.00;;;10.80;1.00;;;;;;25887323;22;20026;-42
2023/03/13 21:25:59;;;;;;;8.23;3.38;;;10.90;1.00;;;;;;25866584;22;20022;-41
2023/03/13 21:36:00;;;;;;;7.00;2.55;;;10.90;1.00;;;;;;25873845;22;20024;-41
2023/03/13 21:46:02;;;;;;;7.43;1.48;;;11.10;1.00;;;;;;25886770;22;20016;-42
2023/03/13 21:56:04;;;;;;;14.43;2.55;;;11.20;1.00;;;;;;25886203;22;20401;-41
2023/03/13 22:06:16;;;;;;;6.15;1.70;;;11.20;1.00;;;;;;25883250;22;20019;-42
2023/03/13 22:16:19;;;;;;;5.15;2.05;;;11.20;1.00;;;;;;25881781;22;20020;-41
2023/03/13 22:26:20;;;;;;;7.70;1.90;;;11.20;1.00;;;;;;25880228;22;20011;-41
2023/03/13 22:36:21;;;;;;;9.80;2.33;;;11.20;1.00;;;;;;25884341;22;20125;-41
2023/03/13 22:46:23;;;;;;;5.55;2.15;;;11.20;1.00;;;;;;25888529;22;20617;-41
2023/03/13 22:56:24;;;;;;;3.85;2.17;;;11.20;1.00;;;;;;25884627;22;20083;-41
2023/03/13 23:06:26;;;;;;;11.70;3.92;;;11.30;1.00;;;;;;25884036;22;20129;-41
2023/03/13 23:16:27;;;;;;;2.47;1.17;;;11.30;1.00;;;;;;25882421;22;20030;-41
2023/03/13 23:26:28;;;;;;;7.38;2.70;;;11.30;1.00;;;;;;25881950;22;20537;-41
2023/03/13 23:36:29;;;;;;;5.60;2.05;;;11.40;1.00;;;;;;25878952;22;20034;-41
2023/03/13 23:46:30;;;;;;;9.90;1.73;;;11.30;1.00;;;;;;25882379;22;20017;-41
2023/03/13 23:56:32;;;;;;;4.75;1.52;;;11.20;1.00;;;;;;25880419;22;20389;-41
